createdAt,value
2023-03-01T00:01:44.386Z,39.59
2023-03-01T00:04:11.908Z,39.72
2023-03-01T00:06:39.382Z,39.30
2023-03-01T00:09:07.663Z,39.33
2023-03-01T00:11:35.417Z,39.59
2023-03-01T00:14:05.780Z,39.67
2023-03-01T00:16:40.421Z,39.28
2023-03-01T00:19:12.205Z,39.60
2023-03-01T00:21:40.956Z,39.42
2023-03-01T00:24:09.045Z,39.41
2023-03-01T00:26:36.640Z,39.47
2023-03-01T00:29:04.932Z,39.60
2023-03-01T00:31:33.967Z,39.47
2023-03-01T00:34:04.482Z,39.21
2023-03-01T00:36:35.045Z,39.41
2023-03-01T00:39:05.315Z,39.38
2023-03-01T00:41:34.846Z,39.53
2023-03-01T00:44:02.175Z,39.45
2023-03-01T00:46:31.556Z,39.38
2023-03-01T00:48:59.137Z,39.66
2023-03-01T00:51:29.515Z,39.67
2023-03-01T00:53:59.583Z,39.32
2023-03-01T00:56:27.769Z,39.45
2023-03-01T00:58:55.161Z,39.34
2023-03-01T01:01:28.386Z,39.34
2023-03-01T01:04:01.589Z,39.70
2023-03-01T01:06:44.002Z,39.29
2023-03-01T01:09:18.073Z,39.55
2023-03-01T01:11:51.570Z,39.51
2023-03-01T01:14:20.091Z,39.39
2023-03-01T01:16:49.072Z,39.36
2023-03-01T01:19:16.453Z,39.45
2023-03-01T01:21:44.398Z,39.60
2023-03-01T01:24:13.545Z,39.41
2023-03-01T01:26:41.530Z,39.38
2023-03-01T01:29:10.059Z,39.29
2023-03-01T01:31:40.524Z,39.53
2023-03-01T01:34:09.350Z,39.30
2023-03-01T01:36:37.054Z,39.36
2023-03-01T01:39:05.343Z,39.36
2023-03-01T01:41:32.924Z,39.57
2023-03-01T01:44:24.350Z,39.18
2023-03-01T01:46:56.548Z,39.51
2023-03-01T01:49:36.247Z,39.42
2023-03-01T01:52:18.035Z,39.47
2023-03-01T01:54:56.006Z,39.53
2023-03-01T01:57:28.580Z,39.56
2023-03-01T02:00:00.490Z,39.54
2023-03-01T02:02:28.410Z,39.67
2023-03-01T02:05:11.175Z,39.46
2023-03-01T02:07:40.924Z,39.47
2023-03-01T02:10:09.126Z,39.41
2023-03-01T02:12:38.835Z,39.44
2023-03-01T02:15:07.332Z,39.57
2023-03-01T02:17:35.627Z,39.43
2023-03-01T02:20:15.916Z,39.29
2023-03-01T02:22:45.816Z,39.36
2023-03-01T02:25:22.020Z,39.61
2023-03-01T02:28:16.578Z,39.53
2023-03-01T02:31:07.202Z,39.25
2023-03-01T02:33:37.710Z,39.47
2023-03-01T02:36:10.229Z,39.48
2023-03-01T02:38:37.868Z,39.32
2023-03-01T02:41:07.412Z,39.63
2023-03-01T02:43:35.812Z,39.20
2023-03-01T02:46:07.518Z,39.56
2023-03-01T02:48:43.407Z,39.29
2023-03-01T02:51:31.255Z,39.57
2023-03-01T02:54:11.023Z,39.48
2023-03-01T02:56:38.487Z,39.50
2023-03-01T02:59:06.361Z,39.34
2023-03-01T03:01:39.477Z,39.05
2023-03-01T03:04:10.832Z,39.24
2023-03-01T03:06:38.475Z,39.47
2023-03-01T03:09:06.078Z,39.17
2023-03-01T03:11:33.359Z,39.50
2023-03-01T03:14:00.876Z,39.22
2023-03-01T03:16:28.223Z,39.15
2023-03-01T03:18:55.898Z,39.32
2023-03-01T03:21:23.128Z,39.47
2023-03-01T03:23:50.668Z,39.13
2023-03-01T03:26:17.901Z,39.34
2023-03-01T03:28:45.388Z,39.08
2023-03-01T03:31:12.631Z,39.19
2023-03-01T03:33:40.147Z,39.40
2023-03-01T03:36:13.899Z,39.12
2023-03-01T03:38:41.380Z,39.33
2023-03-01T03:41:09.287Z,39.33
2023-03-01T03:43:38.613Z,39.51
2023-03-01T03:46:06.707Z,39.10
2023-03-01T03:48:37.142Z,39.14
2023-03-01T03:51:06.713Z,39.22
2023-03-01T03:53:34.421Z,39.54
2023-03-01T03:56:01.789Z,39.10
2023-03-01T03:58:29.292Z,39.20
2023-03-01T04:00:58.136Z,39.37
2023-03-01T04:03:27.397Z,39.14
2023-03-01T04:05:54.929Z,39.20
2023-03-01T04:08:24.022Z,39.11
2023-03-01T04:10:53.327Z,39.13
2023-03-01T04:13:23.448Z,39.06
2023-03-01T04:15:52.469Z,39.21
2023-03-01T04:18:24.407Z,39.42
2023-03-01T04:20:54.746Z,39.11
2023-03-01T04:23:22.399Z,39.08
2023-03-01T04:25:55.666Z,38.96
2023-03-01T04:28:35.191Z,39.21
2023-03-01T04:31:14.713Z,39.23
2023-03-01T04:33:53.756Z,39.28
2023-03-01T04:36:25.113Z,39.07
2023-03-01T04:38:52.930Z,39.27
2023-03-01T04:41:22.469Z,39.04
2023-03-01T04:43:50.504Z,39.37
2023-03-01T04:46:21.252Z,39.27
2023-03-01T04:48:51.505Z,39.12
2023-03-01T04:51:19.417Z,39.18
2023-03-01T04:53:47.288Z,39.07
2023-03-01T04:56:15.018Z,39.09
2023-03-01T04:58:43.036Z,39.12
2023-03-01T05:01:18.287Z,39.62
2023-03-01T05:03:50.528Z,39.02
2023-03-01T05:06:19.924Z,39.01
2023-03-01T05:08:47.462Z,39.25
2023-03-01T05:11:14.830Z,38.96
2023-03-01T05:13:42.535Z,39.28
2023-03-01T05:16:12.430Z,38.98
2023-03-01T05:18:41.740Z,39.22
2023-03-01T05:21:12.504Z,38.86
2023-03-01T05:23:40.515Z,38.96
2023-03-01T05:26:16.180Z,39.19
2023-03-01T05:28:57.519Z,39.32
2023-03-01T05:31:24.832Z,39.14
2023-03-01T05:33:53.722Z,38.88
2023-03-01T05:36:21.078Z,38.84
2023-03-01T05:38:48.838Z,38.92
2023-03-01T05:41:17.805Z,39.10
2023-03-01T05:43:46.045Z,38.89
2023-03-01T05:46:14.345Z,38.89
2023-03-01T05:48:42.501Z,39.19
2023-03-01T05:51:09.697Z,39.30
2023-03-01T05:53:37.200Z,39.12
2023-03-01T05:56:05.647Z,39.22
2023-03-01T05:58:33.196Z,38.88
2023-03-01T06:01:00.508Z,39.29
2023-03-01T06:03:28.123Z,39.18
2023-03-01T06:05:59.601Z,39.15
2023-03-01T06:08:28.247Z,39.26
2023-03-01T06:10:55.680Z,38.69
2023-03-01T06:13:24.482Z,38.97
2023-03-01T06:15:53.188Z,39.00
2023-03-01T06:18:20.911Z,38.86
2023-03-01T06:20:54.597Z,39.18
2023-03-01T06:23:24.328Z,39.07
2023-03-01T06:25:52.055Z,38.97
2023-03-01T06:28:19.574Z,38.80
2023-03-01T06:30:47.233Z,39.02
2023-03-01T06:33:15.096Z,38.97
2023-03-01T06:35:42.624Z,38.81
2023-03-01T06:38:10.454Z,38.80
2023-03-01T06:40:37.708Z,38.79
2023-03-01T06:43:05.426Z,39.02
2023-03-01T06:45:33.298Z,39.12
2023-03-01T06:48:05.810Z,38.73
2023-03-01T06:50:33.557Z,38.69
2023-03-01T06:53:01.758Z,38.95
2023-03-01T06:55:29.410Z,38.58
2023-03-01T06:57:58.097Z,38.68
2023-03-01T07:00:26.403Z,38.44
2023-03-01T07:02:54.380Z,38.69
2023-03-01T07:05:22.040Z,38.48
2023-03-01T07:07:50.033Z,38.78
2023-03-01T07:10:17.481Z,38.72
2023-03-01T07:12:45.086Z,38.46
2023-03-01T07:15:12.398Z,38.52
2023-03-01T07:17:39.968Z,38.54
2023-03-01T07:20:07.645Z,38.45
2023-03-01T07:22:35.137Z,38.29
2023-03-01T07:25:02.440Z,38.52
2023-03-01T07:27:29.962Z,38.63
2023-03-01T07:29:57.281Z,38.58
2023-03-01T07:32:24.864Z,38.33
2023-03-01T07:34:52.773Z,38.59
2023-03-01T07:37:20.343Z,38.57
2023-03-01T07:39:47.613Z,38.25
2023-03-01T07:42:15.172Z,38.49
2023-03-01T07:44:43.041Z,38.60
2023-03-01T07:47:10.726Z,38.48
2023-03-01T07:49:37.971Z,38.57
2023-03-01T07:52:05.546Z,38.30
2023-03-01T07:54:32.864Z,38.55
2023-03-01T07:57:00.479Z,38.62
2023-03-01T07:59:30.040Z,38.32
2023-03-01T08:01:58.500Z,38.06
2023-03-01T08:04:27.622Z,38.33
2023-03-01T08:06:56.299Z,38.33
2023-03-01T08:09:24.963Z,38.10
2023-03-01T08:11:52.590Z,38.19
2023-03-01T08:14:19.938Z,37.91
2023-03-01T08:16:50.697Z,38.12
2023-03-01T08:19:18.523Z,38.13
2023-03-01T08:21:46.105Z,37.87
2023-03-01T08:24:13.380Z,37.81
2023-03-01T08:26:40.967Z,38.08
2023-03-01T08:29:08.268Z,37.93
2023-03-01T08:31:38.485Z,38.09
2023-03-01T08:34:12.053Z,37.62
2023-03-01T08:36:42.561Z,37.18
2023-03-01T08:39:12.171Z,36.95
2023-03-01T08:41:40.367Z,36.61
2023-03-01T08:44:08.738Z,36.71
2023-03-01T08:46:39.239Z,36.44
2023-03-01T08:49:08.331Z,36.30
2023-03-01T08:51:37.865Z,36.57
2023-03-01T08:54:11.777Z,36.56
2023-03-01T08:56:39.517Z,36.50
2023-03-01T08:59:06.927Z,36.55
2023-03-01T09:01:34.584Z,36.81
2023-03-01T09:04:01.943Z,36.72
2023-03-01T09:06:34.048Z,36.93
2023-03-01T09:09:01.736Z,41.44
2023-03-01T09:11:30.408Z,41.36
2023-03-01T09:13:58.012Z,44.04
2023-03-01T09:16:25.611Z,46.07
2023-03-01T09:18:54.608Z,46.59
2023-03-01T09:21:38.980Z,47.57
2023-03-01T09:24:16.739Z,50.33
2023-03-01T09:26:47.798Z,49.14
2023-03-01T09:29:17.239Z,49.25
2023-03-01T09:31:44.909Z,50.26
2023-03-01T09:34:12.892Z,50.70
2023-03-01T09:36:40.460Z,51.15
2023-03-01T09:39:08.163Z,51.18
2023-03-01T09:41:50.205Z,50.53
2023-03-01T09:44:32.620Z,49.84
2023-03-01T09:47:01.313Z,52.12
2023-03-01T09:49:32.708Z,53.99
2023-03-01T09:52:30.672Z,52.28
2023-03-01T09:55:00.401Z,48.75
2023-03-01T09:57:42.470Z,46.73
2023-03-01T10:00:23.324Z,45.64
2023-03-01T10:03:00.759Z,44.97
2023-03-01T10:05:36.983Z,45.03
2023-03-01T10:08:26.300Z,43.65
2023-03-01T10:10:54.769Z,43.37
2023-03-01T10:13:34.068Z,43.11
2023-03-01T10:16:14.952Z,42.59
2023-03-01T10:18:47.591Z,42.18
2023-03-01T10:21:21.586Z,42.19
2023-03-01T10:23:52.707Z,41.87
2023-03-01T10:26:32.354Z,41.58
2023-03-01T10:29:12.660Z,41.49
2023-03-01T10:31:49.497Z,41.55
2023-03-01T10:34:33.078Z,41.47
2023-03-01T10:37:13.261Z,41.20
2023-03-01T10:40:09.180Z,41.39
2023-03-01T10:42:50.209Z,41.02
2023-03-01T10:45:29.985Z,41.34
2023-03-01T10:48:26.952Z,41.09
2023-03-01T10:51:00.691Z,40.90
2023-03-01T10:53:33.047Z,40.84
2023-03-01T10:56:04.397Z,41.06
2023-03-01T10:58:33.509Z,40.95
2023-03-01T11:01:07.162Z,40.82
2023-03-01T11:03:39.683Z,40.91
2023-03-01T11:06:22.714Z,40.93
2023-03-01T11:08:51.401Z,41.02
2023-03-01T11:11:35.834Z,40.61
2023-03-01T11:14:26.335Z,40.94
2023-03-01T11:17:07.048Z,40.84
2023-03-01T11:19:34.558Z,40.55
2023-03-01T11:22:14.017Z,40.55
2023-03-01T11:24:57.271Z,40.58
2023-03-01T11:27:39.766Z,40.44
2023-03-01T11:30:25.199Z,40.53
2023-03-01T11:32:55.750Z,40.43
2023-03-01T11:35:27.811Z,40.36
2023-03-01T11:38:16.656Z,40.60
2023-03-01T11:40:56.228Z,40.45
2023-03-01T11:43:37.902Z,40.64
2023-03-01T11:46:38.232Z,40.65
2023-03-01T11:49:43.468Z,40.54
2023-03-01T11:52:33.656Z,40.76
2023-03-01T11:55:13.111Z,40.77
2023-03-01T11:58:11.108Z,40.72
2023-03-01T12:00:38.756Z,40.70
2023-03-01T12:03:32.336Z,40.97
2023-03-01T12:06:26.028Z,40.71
2023-03-01T12:09:30.732Z,40.82
2023-03-01T12:12:32.182Z,40.93
2023-03-01T12:15:11.021Z,40.82
2023-03-01T12:17:50.807Z,40.90
2023-03-01T12:20:39.226Z,40.96
2023-03-01T12:23:34.535Z,40.88
2023-03-01T12:26:20.115Z,41.01
2023-03-01T12:29:21.571Z,40.90
2023-03-01T12:32:16.330Z,40.88
2023-03-01T12:34:44.483Z,41.03
2023-03-01T12:37:33.547Z,41.07
2023-03-01T12:40:27.780Z,41.06
2023-03-01T12:43:28.923Z,41.05
2023-03-01T12:46:31.297Z,41.22
2023-03-01T12:49:14.478Z,41.28
2023-03-01T12:51:51.872Z,41.25
2023-03-01T12:54:29.163Z,41.26
2023-03-01T12:57:00.962Z,41.39
2023-03-01T13:00:11.000Z,41.21
2023-03-01T13:02:43.614Z,41.16
2023-03-01T13:05:17.444Z,41.23
2023-03-01T13:08:01.881Z,41.16
2023-03-01T13:10:41.511Z,41.60
2023-03-01T13:13:08.969Z,41.36
2023-03-01T13:15:40.471Z,41.42
2023-03-01T13:18:17.225Z,41.46
2023-03-01T13:20:44.456Z,41.43
2023-03-01T13:23:17.750Z,41.46
2023-03-01T13:26:05.837Z,41.44
2023-03-01T13:28:36.393Z,41.51
2023-03-01T13:31:06.392Z,41.49
2023-03-01T13:33:40.852Z,41.42
2023-03-01T13:36:09.851Z,41.48
2023-03-01T13:38:58.340Z,41.53
2023-03-01T13:41:44.095Z,41.44
2023-03-01T13:44:24.633Z,41.42
2023-03-01T13:47:03.100Z,41.57
2023-03-01T13:49:47.546Z,41.47
2023-03-01T13:52:41.478Z,41.52
2023-03-01T13:55:20.537Z,41.56
2023-03-01T13:57:54.676Z,41.59
2023-03-01T14:00:40.622Z,41.55
2023-03-01T14:03:20.822Z,41.59
2023-03-01T14:06:14.857Z,41.52
2023-03-01T14:08:44.799Z,41.63
2023-03-01T14:11:21.409Z,41.61
2023-03-01T14:14:00.827Z,41.51
2023-03-01T14:16:31.587Z,41.65
2023-03-01T14:19:12.707Z,41.68
2023-03-01T14:21:41.638Z,41.56
2023-03-01T14:24:18.325Z,41.65
2023-03-01T14:26:45.951Z,41.57
2023-03-01T14:29:40.103Z,41.74
2023-03-01T14:32:25.203Z,41.76
2023-03-01T14:34:52.811Z,41.67
2023-03-01T14:37:26.253Z,41.57
2023-03-01T14:39:54.547Z,41.70
2023-03-01T14:42:24.361Z,41.73
2023-03-01T14:44:53.763Z,41.62
2023-03-01T14:47:33.879Z,41.65
2023-03-01T14:50:08.727Z,41.56
2023-03-01T14:52:38.357Z,41.76
2023-03-01T14:55:19.229Z,41.69
2023-03-01T14:57:52.123Z,41.60
2023-03-01T15:00:26.316Z,41.61
2023-03-01T15:02:55.988Z,41.63
2023-03-01T15:05:31.337Z,41.64
2023-03-01T15:08:01.769Z,41.74
2023-03-01T15:10:32.033Z,41.66
2023-03-01T15:13:22.834Z,41.84
2023-03-01T15:15:52.248Z,41.53
2023-03-01T15:18:28.709Z,41.61
2023-03-01T15:21:05.723Z,41.58
2023-03-01T15:23:33.466Z,41.80
2023-03-01T15:26:01.482Z,41.83
2023-03-01T15:28:34.136Z,41.65
2023-03-01T15:31:13.574Z,41.67
2023-03-01T15:33:48.026Z,41.61
2023-03-01T15:36:40.135Z,41.61
2023-03-01T15:39:40.323Z,41.76
2023-03-01T15:42:34.526Z,41.73
2023-03-01T15:45:16.519Z,41.73
2023-03-01T15:47:52.365Z,41.76
2023-03-01T15:50:36.241Z,41.73
2023-03-01T15:53:09.319Z,41.85
2023-03-01T15:55:36.879Z,41.66
2023-03-01T15:58:10.628Z,41.62
2023-03-01T16:00:48.615Z,41.76
2023-03-01T16:03:25.572Z,41.77
2023-03-01T16:05:53.203Z,41.68
2023-03-01T16:08:21.760Z,41.89
2023-03-01T16:10:52.132Z,41.79
2023-03-01T16:13:20.254Z,41.81
2023-03-01T16:15:48.281Z,41.84
2023-03-01T16:18:15.660Z,42.03
2023-03-01T16:20:43.241Z,41.79
2023-03-01T16:23:12.680Z,41.82
2023-03-01T16:25:40.288Z,41.75
2023-03-01T16:28:11.827Z,41.76
2023-03-01T16:30:40.576Z,41.67
2023-03-01T16:33:24.238Z,41.76
2023-03-01T16:35:55.143Z,41.94
2023-03-01T16:38:22.616Z,41.91
2023-03-01T16:40:51.989Z,41.82
2023-03-01T16:43:19.288Z,41.71
2023-03-01T16:45:47.461Z,41.87
2023-03-01T16:48:15.158Z,41.80
2023-03-01T16:50:42.835Z,41.80
2023-03-01T16:53:10.887Z,41.80
2023-03-01T16:55:38.918Z,41.89
2023-03-01T16:58:06.688Z,41.77
2023-03-01T17:00:34.321Z,41.61
2023-03-01T17:03:02.163Z,41.80
2023-03-01T17:05:29.932Z,41.69
2023-03-01T17:07:58.053Z,41.67
2023-03-01T17:10:25.650Z,41.76
2023-03-01T17:12:54.430Z,41.72
2023-03-01T17:15:22.432Z,41.65
2023-03-01T17:17:51.787Z,41.47
2023-03-01T17:20:20.036Z,41.52
2023-03-01T17:22:47.443Z,41.53
2023-03-01T17:25:15.906Z,41.61
2023-03-01T17:27:44.144Z,41.59
2023-03-01T17:30:14.598Z,41.52
2023-03-01T17:32:42.665Z,41.48
2023-03-01T17:35:13.727Z,41.30
2023-03-01T17:37:46.358Z,41.42
2023-03-01T17:40:14.366Z,41.56
2023-03-01T17:42:42.696Z,41.43
2023-03-01T17:45:10.946Z,41.38
2023-03-01T17:47:38.519Z,41.37
2023-03-01T17:50:08.280Z,41.48
2023-03-01T17:52:35.927Z,41.37
2023-03-01T17:55:05.347Z,41.39
2023-03-01T17:57:32.944Z,41.44
2023-03-01T18:00:00.631Z,41.43
2023-03-01T18:02:28.747Z,41.30
2023-03-01T18:05:01.311Z,41.33
2023-03-01T18:07:28.848Z,41.40
2023-03-01T18:09:56.707Z,41.24
2023-03-01T18:12:23.948Z,41.36
2023-03-01T18:14:53.625Z,41.26
2023-03-01T18:17:23.805Z,41.44
2023-03-01T18:19:52.099Z,41.24
2023-03-01T18:22:19.504Z,41.28
2023-03-01T18:24:47.363Z,41.08
2023-03-01T18:27:15.588Z,41.19
2023-03-01T18:29:43.395Z,41.20
2023-03-01T18:32:11.028Z,41.15
2023-03-01T18:34:38.968Z,41.13
2023-03-01T18:37:18.137Z,41.16
2023-03-01T18:40:08.030Z,41.15
2023-03-01T18:42:36.434Z,41.13
2023-03-01T18:45:04.424Z,41.19
2023-03-01T18:47:31.686Z,41.10
2023-03-01T18:49:59.210Z,41.18
2023-03-01T18:52:27.060Z,41.22
2023-03-01T18:54:54.612Z,41.11
2023-03-01T18:57:22.043Z,41.01
2023-03-01T18:59:49.906Z,41.01
2023-03-01T19:02:17.357Z,40.96
2023-03-01T19:04:44.978Z,41.03
2023-03-01T19:07:12.540Z,41.02
2023-03-01T19:09:40.899Z,41.07
2023-03-01T19:12:08.630Z,40.83
2023-03-01T19:14:36.163Z,41.02
2023-03-01T19:17:03.524Z,40.93
2023-03-01T19:19:31.343Z,41.10
2023-03-01T19:22:05.760Z,41.01
2023-03-01T19:24:35.176Z,40.89
2023-03-01T19:27:02.615Z,40.98
2023-03-01T19:29:30.260Z,41.07
2023-03-01T19:31:57.605Z,40.91
2023-03-01T19:34:25.570Z,40.90
2023-03-01T19:36:52.914Z,40.85
2023-03-01T19:39:20.550Z,40.72
2023-03-01T19:41:49.958Z,40.82
2023-03-01T19:44:17.888Z,40.89
2023-03-01T19:46:45.395Z,40.73
2023-03-01T19:49:12.983Z,40.76
2023-03-01T19:51:40.351Z,40.74
2023-03-01T19:54:09.742Z,40.58
2023-03-01T19:56:37.469Z,40.82
2023-03-01T19:59:06.733Z,40.72
2023-03-01T20:01:35.125Z,40.63
2023-03-01T20:04:03.910Z,40.53
2023-03-01T20:06:31.764Z,40.38
2023-03-01T20:09:06.248Z,40.99
2023-03-01T20:11:36.411Z,42.67
2023-03-01T20:14:06.662Z,44.32
2023-03-01T20:16:34.895Z,41.81
2023-03-01T20:19:03.322Z,41.47
2023-03-01T20:21:30.876Z,41.60
2023-03-01T20:23:58.711Z,41.61
2023-03-01T20:26:28.505Z,41.53
2023-03-01T20:28:57.230Z,41.65
2023-03-01T20:31:29.494Z,42.02
2023-03-01T20:33:58.808Z,41.71
2023-03-01T20:36:27.231Z,41.99
2023-03-01T20:38:55.487Z,42.26
2023-03-01T20:41:25.924Z,42.21
2023-03-01T20:43:58.604Z,42.38
2023-03-01T20:46:26.821Z,42.63
2023-03-01T20:48:54.696Z,42.72
2023-03-01T20:51:22.210Z,42.60
2023-03-01T20:53:50.434Z,42.78
2023-03-01T20:56:19.548Z,42.84
2023-03-01T20:58:47.234Z,42.78
2023-03-01T21:01:17.981Z,42.98
2023-03-01T21:03:45.679Z,43.11
2023-03-01T21:06:13.803Z,42.95
2023-03-01T21:08:41.364Z,42.98
2023-03-01T21:11:08.664Z,43.10
2023-03-01T21:13:36.515Z,43.27
2023-03-01T21:16:07.897Z,43.25
2023-03-01T21:18:36.997Z,43.31
2023-03-01T21:21:16.450Z,43.24
2023-03-01T21:23:45.170Z,43.26
2023-03-01T21:26:21.235Z,43.47
2023-03-01T21:28:50.859Z,43.43
2023-03-01T21:31:22.248Z,43.45
2023-03-01T21:33:52.380Z,43.59
2023-03-01T21:36:21.276Z,43.30
2023-03-01T21:38:50.329Z,43.62
2023-03-01T21:41:26.082Z,43.60
2023-03-01T21:43:56.866Z,43.65
2023-03-01T21:46:26.099Z,43.53
2023-03-01T21:48:55.173Z,43.50
2023-03-01T21:51:25.284Z,43.59
2023-03-01T21:53:55.582Z,43.66
2023-03-01T21:56:25.902Z,43.50
2023-03-01T21:58:54.105Z,43.84
2023-03-01T22:01:25.351Z,43.45
2023-03-01T22:03:53.310Z,43.53
2023-03-01T22:06:24.517Z,43.75
2023-03-01T22:08:57.482Z,43.75
2023-03-01T22:11:26.227Z,43.83
2023-03-01T22:13:55.852Z,43.85
2023-03-01T22:16:26.225Z,43.84
2023-03-01T22:18:54.441Z,43.81
2023-03-01T22:21:23.070Z,44.08
2023-03-01T22:23:52.828Z,43.77
2023-03-01T22:26:29.368Z,43.78
2023-03-01T22:28:59.161Z,43.93
2023-03-01T22:31:27.929Z,43.80
2023-03-01T22:33:57.106Z,43.99
2023-03-01T22:36:25.477Z,43.98
2023-03-01T22:38:59.326Z,43.84
2023-03-01T22:41:29.290Z,43.79
2023-03-01T22:43:57.196Z,43.72
2023-03-01T22:46:25.115Z,44.07
2023-03-01T22:48:53.045Z,43.96
2023-03-01T22:51:27.568Z,44.12
2023-03-01T22:53:55.576Z,44.17
2023-03-01T22:56:25.689Z,44.13
2023-03-01T22:58:53.244Z,43.80
2023-03-01T23:01:23.483Z,43.50
2023-03-01T23:03:51.318Z,44.39
2023-03-01T23:06:20.560Z,44.16
2023-03-01T23:08:55.502Z,43.99
2023-03-01T23:11:24.582Z,43.93
2023-03-01T23:13:53.356Z,44.08
2023-03-01T23:16:26.173Z,43.89
2023-03-01T23:18:56.062Z,43.87
2023-03-01T23:21:23.360Z,44.17
2023-03-01T23:23:51.096Z,44.07
2023-03-01T23:26:22.138Z,43.91
2023-03-01T23:28:50.817Z,44.06
2023-03-01T23:31:19.161Z,43.91
2023-03-01T23:33:47.334Z,44.00
2023-03-01T23:36:14.685Z,44.20
2023-03-01T23:38:42.589Z,44.16
2023-03-01T23:41:12.011Z,44.03
2023-03-01T23:43:39.626Z,44.04
2023-03-01T23:46:07.015Z,43.98
2023-03-01T23:48:34.669Z,43.80
2023-03-01T23:51:05.574Z,44.09
2023-03-01T23:53:35.920Z,44.07
2023-03-01T23:56:03.805Z,44.18
2023-03-01T23:58:31.408Z,44.15
